Messwerte Bryce Canyon UT

Temperatur

Temperatur
°C
1575604800 21.00 21.00 -9
1575608400 22.00 22.00
1575612000 23.00 23.00 -6
1575615600 0.00 0.00 -7
1575619200 1.00 1.00 -10
1575622800 2.00 2.00 -10
1575626400 3.00 3.00 -12
1575630000 4.00 4.00 -12
1575633600 5.00 5.00 -13
1575637200 6.00 6.00 -13
1575640800 7.00 7.00 -13
1575644400 8.00 8.00 -12
1575648000 9.00 9.00 -11
1575651600 10.00 10.00 -9
1575655200 11.00 11.00
1575658800 12.00 12.00 1
1575662400 13.00 13.00 2
1575666000 14.00 14.00 2
1575669600 15.00 15.00 2
1575673200 16.00 16.00 2
1575676800 17.00 17.00 1
1575680400 18.00 18.00
1575684000 19.00 19.00 1
1575687600 20.00 20.00 0

Aktuellste Messwerte

Temperatur
-1 °C
Feuchtigkeit
90 %
Wind
5 km/hWindrichtung: Süd
Luftdruck
1027 hPa
Messzeit: 6. Dezember 2019, 21.00Datenquelle: METAR

Weitere Messstationen in der Nähe

Messstation Temperatur Entfernung
Cedar City 3 °C 84 km
Page 6 °C 106 km
Milford - 110 km
St George 12 °C 144 km
Grand Canyon 0 °C 194 km
Moab 4 °C 240 km
Price 3 °C 246 km

Wind

Windrichtung Böen Mittelwind
° km/h km/h
1575604800 21.00 20.00 - 21.00 260° 15
1575608400 22.00 21.00 - 22.00
1575612000 23.00 22.00 - 23.00 300° 15
1575615600 0.00 23.00 - 0.00 260° 5
1575619200 1.00 0.00 - 1.00 280° 5
1575622800 2.00 1.00 - 2.00 270° 5
1575626400 3.00 2.00 - 3.00 230° 5
1575630000 4.00 3.00 - 4.00 0
1575633600 5.00 4.00 - 5.00 240° 5
1575637200 6.00 5.00 - 6.00 230° 5
1575640800 7.00 6.00 - 7.00 210° 5
1575644400 8.00 7.00 - 8.00 0
1575648000 9.00 8.00 - 9.00 0
1575651600 10.00 9.00 - 10.00 210° 5
1575655200 11.00 10.00 - 11.00
1575658800 12.00 11.00 - 12.00 160° 15
1575662400 13.00 12.00 - 13.00 160° 15
1575666000 14.00 13.00 - 14.00 130° 15
1575669600 15.00 14.00 - 15.00 160° 15
1575673200 16.00 15.00 - 16.00 170° 5
1575676800 17.00 16.00 - 17.00 180° 15
1575680400 18.00 17.00 - 18.00
1575684000 19.00 18.00 - 19.00 170° 20
1575687600 20.00 19.00 - 20.00 160° 5

Ihre Wetterstation

Fehlt Ihre Wetterstation auf unserem Portal?

Schreiben Sie an network@meteonews.ch

Klima

Wann ist es am wärmsten? Wann regnet es am wenigsten? Unsere Klimadaten geben Auskunft.